Arden, Nevada
Current Conditions -  °F | °C
As of 5:56 AM on Monday 20 Oct 2014 (Local Time) from KLAS Reporting Station
Clear Clear  
Wind Chill: 19°   Ceiling: Unl
Heat Index: 19°   Visibility: 10mi
Dew Point:   Wind: 7mph
Humidity: 36%   Direction: 210°SSW
Pressure: 29.87"   Gusts: NA
Location:  36.079°N, 115.211°W
Report Text: KLAS 201256Z 21006KT 10SM CLR 19/03 A2987 RMK AO2 SLP095 T01890033
Loading
Personal Weather Stations






























Interactive Weather Map
Tropical Storm Tracking
New forecast layout! Learn more

10-Day Weather Forecast

Advertisements
Track Severe Weather on mobile